sensor_id;sensor_type;location;lat;lon;timestamp;P1;durP1;ratioP1;P2;durP2;ratioP2
49223;SDS011;35050;51.316;5.994;2022-08-11T00:17:12;1.20;;;0.80;;
49223;SDS011;35050;51.316;5.994;2022-08-11T00:19:40;1.27;;;0.70;;
49223;SDS011;35050;51.316;5.994;2022-08-11T00:22:09;2.92;;;1.00;;
49223;SDS011;35050;51.316;5.994;2022-08-11T00:24:36;2.70;;;0.90;;
49223;SDS011;35050;51.316;5.994;2022-08-11T00:27:04;3.15;;;1.05;;
49223;SDS011;35050;51.316;5.994;2022-08-11T00:29:31;0.98;;;0.90;;
49223;SDS011;35050;51.316;5.994;2022-08-11T00:31:59;1.55;;;0.90;;
49223;SDS011;35050;51.316;5.994;2022-08-11T00:34:28;2.42;;;1.00;;
49223;SDS011;35050;51.316;5.994;2022-08-11T00:37:38;1.20;;;1.10;;
49223;SDS011;35050;51.316;5.994;2022-08-11T00:39:47;1.63;;;0.90;;
49223;SDS011;35050;51.316;5.994;2022-08-11T00:47:27;1.10;;;0.85;;
49223;SDS011;35050;51.316;5.994;2022-08-11T01:04:11;2.13;;;1.20;;
49223;SDS011;35050;51.316;5.994;2022-08-11T01:49:38;1.48;;;1.38;;
49223;SDS011;35050;51.316;5.994;2022-08-11T01:52:24;2.40;;;1.67;;
49223;SDS011;35050;51.316;5.994;2022-08-11T02:01:01;1.45;;;1.33;;
49223;SDS011;35050;51.316;5.994;2022-08-11T02:03:45;1.00;;;0.95;;
49223;SDS011;35050;51.316;5.994;2022-08-11T02:09:19;1.30;;;1.20;;
49223;SDS011;35050;51.316;5.994;2022-08-11T02:11:49;1.15;;;1.10;;
49223;SDS011;35050;51.316;5.994;2022-08-11T02:17:16;1.42;;;1.10;;
49223;SDS011;35050;51.316;5.994;2022-08-11T02:29:11;1.40;;;1.05;;
49223;SDS011;35050;51.316;5.994;2022-08-11T02:42:22;1.23;;;1.10;;
49223;SDS011;35050;51.316;5.994;2022-08-11T02:50:37;0.90;;;0.80;;
49223;SDS011;35050;51.316;5.994;2022-08-11T02:59:48;1.17;;;0.87;;
49223;SDS011;35050;51.316;5.994;2022-08-11T03:07:39;1.45;;;1.20;;
49223;SDS011;35050;51.316;5.994;2022-08-11T03:10:21;1.60;;;1.08;;
49223;SDS011;35050;51.316;5.994;2022-08-11T03:21:51;2.75;;;1.25;;
49223;SDS011;35050;51.316;5.994;2022-08-11T03:24:38;1.48;;;1.10;;
49223;SDS011;35050;51.316;5.994;2022-08-11T03:30:05;0.90;;;0.90;;
49223;SDS011;35050;51.316;5.994;2022-08-11T03:35:10;0.93;;;0.93;;
49223;SDS011;35050;51.316;5.994;2022-08-11T03:37:57;1.30;;;1.08;;
49223;SDS011;35050;51.316;5.994;2022-08-11T03:43:54;2.00;;;1.10;;
49223;SDS011;35050;51.316;5.994;2022-08-11T04:00:42;1.20;;;1.08;;
49223;SDS011;35050;51.316;5.994;2022-08-11T04:30:06;1.13;;;1.00;;
49223;SDS011;35050;51.316;5.994;2022-08-11T04:44:06;1.10;;;1.00;;
49223;SDS011;35050;51.316;5.994;2022-08-11T05:01:31;0.90;;;0.90;;
49223;SDS011;35050;51.316;5.994;2022-08-11T05:10:12;1.10;;;1.00;;
49223;SDS011;35050;51.316;5.994;2022-08-11T05:13:01;0.90;;;0.90;;
49223;SDS011;35050;51.316;5.994;2022-08-11T05:15:50;2.17;;;1.15;;
49223;SDS011;35050;51.316;5.994;2022-08-11T05:18:50;1.77;;;1.30;;
49223;SDS011;35050;51.316;5.994;2022-08-11T05:21:36;0.90;;;0.90;;
49223;SDS011;35050;51.316;5.994;2022-08-11T05:24:46;1.13;;;1.02;;
49223;SDS011;35050;51.316;5.994;2022-08-11T05:27:49;1.50;;;1.08;;
49223;SDS011;35050;51.316;5.994;2022-08-11T05:30:41;1.65;;;1.13;;
49223;SDS011;35050;51.316;5.994;2022-08-11T05:33:32;2.78;;;1.13;;
49223;SDS011;35050;51.316;5.994;2022-08-11T05:39:15;2.72;;;1.30;;
49223;SDS011;35050;51.316;5.994;2022-08-11T05:42:04;2.38;;;1.08;;
49223;SDS011;35050;51.316;5.994;2022-08-11T05:44:50;2.15;;;1.20;;
49223;SDS011;35050;51.316;5.994;2022-08-11T05:47:38;2.25;;;0.90;;
49223;SDS011;35050;51.316;5.994;2022-08-11T05:50:24;1.67;;;1.20;;
49223;SDS011;35050;51.316;5.994;2022-08-11T05:53:09;3.53;;;1.35;;
49223;SDS011;35050;51.316;5.994;2022-08-11T05:55:55;1.52;;;1.27;;
49223;SDS011;35050;51.316;5.994;2022-08-11T05:58:41;2.28;;;1.58;;
49223;SDS011;35050;51.316;5.994;2022-08-11T06:01:12;1.95;;;1.52;;
49223;SDS011;35050;51.316;5.994;2022-08-11T06:03:47;2.03;;;1.35;;
49223;SDS011;35050;51.316;5.994;2022-08-11T06:06:35;2.63;;;1.50;;
49223;SDS011;35050;51.316;5.994;2022-08-11T06:09:04;2.38;;;1.45;;
49223;SDS011;35050;51.316;5.994;2022-08-11T06:11:35;1.88;;;1.48;;
49223;SDS011;35050;51.316;5.994;2022-08-11T06:14:06;1.70;;;1.20;;
49223;SDS011;35050;51.316;5.994;2022-08-11T06:16:34;1.58;;;1.33;;
49223;SDS011;35050;51.316;5.994;2022-08-11T06:19:02;2.15;;;1.58;;
49223;SDS011;35050;51.316;5.994;2022-08-11T06:21:31;1.75;;;1.60;;
49223;SDS011;35050;51.316;5.994;2022-08-11T06:23:59;2.60;;;1.65;;
49223;SDS011;35050;51.316;5.994;2022-08-11T06:26:37;1.75;;;1.48;;
49223;SDS011;35050;51.316;5.994;2022-08-11T06:29:04;1.88;;;1.50;;
49223;SDS011;35050;51.316;5.994;2022-08-11T06:31:30;3.70;;;1.60;;
49223;SDS011;35050;51.316;5.994;2022-08-11T06:34:01;1.98;;;1.58;;
49223;SDS011;35050;51.316;5.994;2022-08-11T06:36:45;1.98;;;1.45;;
49223;SDS011;35050;51.316;5.994;2022-08-11T06:39:26;2.50;;;1.45;;
49223;SDS011;35050;51.316;5.994;2022-08-11T06:42:04;1.95;;;1.40;;
49223;SDS011;35050;51.316;5.994;2022-08-11T06:44:40;3.63;;;1.48;;
49223;SDS011;35050;51.316;5.994;2022-08-11T06:47:07;2.63;;;1.63;;
49223;SDS011;35050;51.316;5.994;2022-08-11T06:49:43;2.90;;;1.67;;
49223;SDS011;35050;51.316;5.994;2022-08-11T06:52:35;2.55;;;1.60;;
49223;SDS011;35050;51.316;5.994;2022-08-11T06:55:06;2.80;;;1.90;;
49223;SDS011;35050;51.316;5.994;2022-08-11T06:57:39;2.45;;;1.30;;
49223;SDS011;35050;51.316;5.994;2022-08-11T07:00:29;3.00;;;1.70;;
49223;SDS011;35050;51.316;5.994;2022-08-11T07:03:09;1.92;;;1.30;;
49223;SDS011;35050;51.316;5.994;2022-08-11T07:08:15;2.17;;;1.38;;
49223;SDS011;35050;51.316;5.994;2022-08-11T07:14:51;2.50;;;1.50;;
49223;SDS011;35050;51.316;5.994;2022-08-11T07:17:43;2.40;;;1.77;;
49223;SDS011;35050;51.316;5.994;2022-08-11T07:20:13;2.25;;;1.40;;
49223;SDS011;35050;51.316;5.994;2022-08-11T07:23:00;3.22;;;1.40;;
49223;SDS011;35050;51.316;5.994;2022-08-11T07:25:46;2.88;;;1.45;;
49223;SDS011;35050;51.316;5.994;2022-08-11T07:28:35;1.98;;;1.15;;
49223;SDS011;35050;51.316;5.994;2022-08-11T07:31:37;2.55;;;2.05;;
49223;SDS011;35050;51.316;5.994;2022-08-11T07:36:41;1.63;;;1.50;;
49223;SDS011;35050;51.316;5.994;2022-08-11T07:39:16;1.67;;;1.48;;
49223;SDS011;35050;51.316;5.994;2022-08-11T07:41:49;2.20;;;1.40;;
49223;SDS011;35050;51.316;5.994;2022-08-11T07:44:16;5.55;;;1.88;;
49223;SDS011;35050;51.316;5.994;2022-08-11T07:46:44;2.50;;;1.50;;
49223;SDS011;35050;51.316;5.994;2022-08-11T07:49:31;1.95;;;1.50;;
49223;SDS011;35050;51.316;5.994;2022-08-11T07:52:19;2.63;;;1.48;;
49223;SDS011;35050;51.316;5.994;2022-08-11T07:55:05;2.88;;;1.50;;
49223;SDS011;35050;51.316;5.994;2022-08-11T07:57:33;3.03;;;1.38;;
49223;SDS011;35050;51.316;5.994;2022-08-11T08:00:18;2.38;;;1.63;;
49223;SDS011;35050;51.316;5.994;2022-08-11T08:03:03;2.85;;;1.83;;
49223;SDS011;35050;51.316;5.994;2022-08-11T08:05:49;4.97;;;1.80;;
49223;SDS011;35050;51.316;5.994;2022-08-11T08:08:35;2.67;;;1.55;;
49223;SDS011;35050;51.316;5.994;2022-08-11T08:11:21;2.50;;;1.77;;
49223;SDS011;35050;51.316;5.994;2022-08-11T08:14:07;3.67;;;1.88;;
49223;SDS011;35050;51.316;5.994;2022-08-11T08:16:52;2.30;;;1.80;;
49223;SDS011;35050;51.316;5.994;2022-08-11T08:19:38;1.80;;;1.45;;
49223;SDS011;35050;51.316;5.994;2022-08-11T08:22:08;1.95;;;1.63;;
49223;SDS011;35050;51.316;5.994;2022-08-11T08:24:35;2.63;;;1.85;;
49223;SDS011;35050;51.316;5.994;2022-08-11T08:27:03;1.92;;;1.33;;
49223;SDS011;35050;51.316;5.994;2022-08-11T08:29:33;2.40;;;1.77;;
49223;SDS011;35050;51.316;5.994;2022-08-11T08:32:20;3.17;;;1.63;;
49223;SDS011;35050;51.316;5.994;2022-08-11T08:34:49;2.83;;;1.92;;
49223;SDS011;35050;51.316;5.994;2022-08-11T08:37:17;4.22;;;1.85;;
49223;SDS011;35050;51.316;5.994;2022-08-11T08:39:45;4.22;;;1.88;;
49223;SDS011;35050;51.316;5.994;2022-08-11T08:42:12;2.17;;;1.75;;
49223;SDS011;35050;51.316;5.994;2022-08-11T08:44:44;2.57;;;1.87;;
49223;SDS011;35050;51.316;5.994;2022-08-11T08:47:15;3.95;;;1.80;;
49223;SDS011;35050;51.316;5.994;2022-08-11T08:49:55;5.55;;;2.20;;
49223;SDS011;35050;51.316;5.994;2022-08-11T08:52:25;4.33;;;1.80;;
49223;SDS011;35050;51.316;5.994;2022-08-11T08:54:56;2.00;;;1.75;;
49223;SDS011;35050;51.316;5.994;2022-08-11T08:57:26;2.03;;;1.80;;
49223;SDS011;35050;51.316;5.994;2022-08-11T08:59:53;5.15;;;2.10;;
49223;SDS011;35050;51.316;5.994;2022-08-11T09:02:22;2.20;;;2.00;;
49223;SDS011;35050;51.316;5.994;2022-08-11T09:04:50;2.17;;;1.60;;
49223;SDS011;35050;51.316;5.994;2022-08-11T09:07:17;3.03;;;1.77;;
49223;SDS011;35050;51.316;5.994;2022-08-11T09:09:47;1.48;;;1.38;;
49223;SDS011;35050;51.316;5.994;2022-08-11T09:12:14;3.63;;;1.77;;
49223;SDS011;35050;51.316;5.994;2022-08-11T09:14:43;2.00;;;1.65;;
49223;SDS011;35050;51.316;5.994;2022-08-11T09:17:34;1.70;;;1.60;;
49223;SDS011;35050;51.316;5.994;2022-08-11T09:20:13;2.15;;;1.50;;
49223;SDS011;35050;51.316;5.994;2022-08-11T09:22:50;2.10;;;1.60;;
49223;SDS011;35050;51.316;5.994;2022-08-11T09:25:39;3.33;;;1.77;;
49223;SDS011;35050;51.316;5.994;2022-08-11T09:28:24;1.90;;;1.60;;
49223;SDS011;35050;51.316;5.994;2022-08-11T09:30:53;1.50;;;1.40;;
49223;SDS011;35050;51.316;5.994;2022-08-11T09:33:21;2.35;;;1.90;;
49223;SDS011;35050;51.316;5.994;2022-08-11T09:35:48;2.80;;;1.70;;
49223;SDS011;35050;51.316;5.994;2022-08-11T09:38:16;1.75;;;1.60;;
49223;SDS011;35050;51.316;5.994;2022-08-11T09:41:04;1.63;;;1.50;;
49223;SDS011;35050;51.316;5.994;2022-08-11T09:43:32;4.93;;;1.88;;
49223;SDS011;35050;51.316;5.994;2022-08-11T09:46:22;4.47;;;1.95;;
49223;SDS011;35050;51.316;5.994;2022-08-11T09:48:51;1.60;;;1.50;;
49223;SDS011;35050;51.316;5.994;2022-08-11T09:51:20;2.58;;;1.67;;
49223;SDS011;35050;51.316;5.994;2022-08-11T09:53:46;2.22;;;1.83;;
49223;SDS011;35050;51.316;5.994;2022-08-11T09:56:15;3.47;;;1.70;;
49223;SDS011;35050;51.316;5.994;2022-08-11T09:59:00;4.55;;;1.90;;
49223;SDS011;35050;51.316;5.994;2022-08-11T10:01:37;2.58;;;1.70;;
49223;SDS011;35050;51.316;5.994;2022-08-11T10:04:14;2.13;;;1.70;;
49223;SDS011;35050;51.316;5.994;2022-08-11T10:06:42;3.00;;;1.70;;
49223;SDS011;35050;51.316;5.994;2022-08-11T10:09:37;1.75;;;1.40;;
49223;SDS011;35050;51.316;5.994;2022-08-11T10:12:19;2.58;;;1.80;;
49223;SDS011;35050;51.316;5.994;2022-08-11T10:14:47;2.08;;;1.60;;
49223;SDS011;35050;51.316;5.994;2022-08-11T10:17:38;2.10;;;1.25;;
49223;SDS011;35050;51.316;5.994;2022-08-11T10:20:29;1.75;;;1.35;;
49223;SDS011;35050;51.316;5.994;2022-08-11T10:22:58;1.50;;;1.40;;
49223;SDS011;35050;51.316;5.994;2022-08-11T10:25:44;1.42;;;1.23;;
49223;SDS011;35050;51.316;5.994;2022-08-11T10:28:30;1.67;;;1.40;;
49223;SDS011;35050;51.316;5.994;2022-08-11T10:30:57;1.80;;;1.40;;
49223;SDS011;35050;51.316;5.994;2022-08-11T10:33:43;1.80;;;1.20;;
49223;SDS011;35050;51.316;5.994;2022-08-11T10:36:30;1.75;;;1.52;;
49223;SDS011;35050;51.316;5.994;2022-08-11T10:39:27;1.52;;;1.42;;
49223;SDS011;35050;51.316;5.994;2022-08-11T10:41:54;1.70;;;1.40;;
49223;SDS011;35050;51.316;5.994;2022-08-11T10:44:43;2.10;;;1.40;;
49223;SDS011;35050;51.316;5.994;2022-08-11T10:47:14;2.47;;;1.40;;
49223;SDS011;35050;51.316;5.994;2022-08-11T10:50:00;1.40;;;1.30;;
49223;SDS011;35050;51.316;5.994;2022-08-11T10:52:51;2.22;;;1.40;;
49223;SDS011;35050;51.316;5.994;2022-08-11T10:55:37;1.55;;;1.35;;
49223;SDS011;35050;51.316;5.994;2022-08-11T10:58:25;1.75;;;1.50;;
49223;SDS011;35050;51.316;5.994;2022-08-11T11:01:09;1.73;;;1.40;;
49223;SDS011;35050;51.316;5.994;2022-08-11T11:03:36;1.85;;;1.63;;
49223;SDS011;35050;51.316;5.994;2022-08-11T11:06:16;3.92;;;1.50;;
49223;SDS011;35050;51.316;5.994;2022-08-11T11:09:07;1.63;;;1.48;;
49223;SDS011;35050;51.316;5.994;2022-08-11T11:11:49;1.48;;;1.30;;
49223;SDS011;35050;51.316;5.994;2022-08-11T11:14:36;1.73;;;1.33;;
49223;SDS011;35050;51.316;5.994;2022-08-11T11:17:29;2.90;;;1.30;;
49223;SDS011;35050;51.316;5.994;2022-08-11T11:23:17;2.63;;;1.40;;
49223;SDS011;35050;51.316;5.994;2022-08-11T11:31:31;1.90;;;1.23;;
49223;SDS011;35050;51.316;5.994;2022-08-11T11:37:19;1.88;;;1.40;;
49223;SDS011;35050;51.316;5.994;2022-08-11T11:39:48;3.15;;;1.23;;
49223;SDS011;35050;51.316;5.994;2022-08-11T11:42:15;3.15;;;1.58;;
49223;SDS011;35050;51.316;5.994;2022-08-11T11:44:43;1.55;;;1.27;;
49223;SDS011;35050;51.316;5.994;2022-08-11T11:47:11;2.50;;;1.20;;
49223;SDS011;35050;51.316;5.994;2022-08-11T11:49:39;1.77;;;1.13;;
49223;SDS011;35050;51.316;5.994;2022-08-11T11:52:07;1.30;;;1.20;;
49223;SDS011;35050;51.316;5.994;2022-08-11T11:54:43;1.38;;;1.27;;
49223;SDS011;35050;51.316;5.994;2022-08-11T11:57:13;1.50;;;1.40;;
49223;SDS011;35050;51.316;5.994;2022-08-11T12:00:00;1.50;;;1.30;;
49223;SDS011;35050;51.316;5.994;2022-08-11T12:02:49;2.45;;;1.00;;
49223;SDS011;35050;51.316;5.994;2022-08-11T12:05:16;1.92;;;1.23;;
49223;SDS011;35050;51.316;5.994;2022-08-11T12:07:42;3.28;;;1.50;;
49223;SDS011;35050;51.316;5.994;2022-08-11T12:10:27;2.17;;;1.55;;
49223;SDS011;35050;51.316;5.994;2022-08-11T12:12:54;1.55;;;1.45;;
49223;SDS011;35050;51.316;5.994;2022-08-11T12:15:38;1.73;;;1.35;;
49223;SDS011;35050;51.316;5.994;2022-08-11T12:18:04;2.80;;;1.30;;
49223;SDS011;35050;51.316;5.994;2022-08-11T12:20:30;0.95;;;0.95;;
49223;SDS011;35050;51.316;5.994;2022-08-11T12:22:57;1.33;;;1.23;;
49223;SDS011;35050;51.316;5.994;2022-08-11T12:25:41;2.45;;;1.30;;
49223;SDS011;35050;51.316;5.994;2022-08-11T12:28:27;1.60;;;1.50;;
49223;SDS011;35050;51.316;5.994;2022-08-11T12:30:53;1.73;;;1.20;;
49223;SDS011;35050;51.316;5.994;2022-08-11T12:33:19;1.98;;;1.40;;
49223;SDS011;35050;51.316;5.994;2022-08-11T12:35:46;1.45;;;1.33;;
49223;SDS011;35050;51.316;5.994;2022-08-11T12:38:17;1.23;;;1.02;;
49223;SDS011;35050;51.316;5.994;2022-08-11T12:40:45;1.30;;;1.20;;
49223;SDS011;35050;51.316;5.994;2022-08-11T12:43:31;1.35;;;1.00;;
49223;SDS011;35050;51.316;5.994;2022-08-11T12:46:24;1.35;;;1.25;;
49223;SDS011;35050;51.316;5.994;2022-08-11T12:48:57;1.48;;;1.15;;
49223;SDS011;35050;51.316;5.994;2022-08-11T12:51:45;1.27;;;1.05;;
49223;SDS011;35050;51.316;5.994;2022-08-11T12:54:24;1.27;;;1.17;;
49223;SDS011;35050;51.316;5.994;2022-08-11T12:56:59;1.33;;;1.20;;
49223;SDS011;35050;51.316;5.994;2022-08-11T12:59:46;2.20;;;1.33;;
49223;SDS011;35050;51.316;5.994;2022-08-11T13:02:31;1.92;;;1.25;;
49223;SDS011;35050;51.316;5.994;2022-08-11T13:05:17;3.53;;;1.40;;
49223;SDS011;35050;51.316;5.994;2022-08-11T13:07:44;2.05;;;1.30;;
49223;SDS011;35050;51.316;5.994;2022-08-11T13:10:11;1.60;;;1.33;;
49223;SDS011;35050;51.316;5.994;2022-08-11T13:12:38;1.23;;;1.02;;
49223;SDS011;35050;51.316;5.994;2022-08-11T13:15:21;1.40;;;1.30;;
49223;SDS011;35050;51.316;5.994;2022-08-11T13:17:50;2.28;;;1.60;;
49223;SDS011;35050;51.316;5.994;2022-08-11T13:20:19;1.55;;;1.17;;
49223;SDS011;35050;51.316;5.994;2022-08-11T13:22:50;1.95;;;1.20;;
49223;SDS011;35050;51.316;5.994;2022-08-11T13:25:20;2.38;;;1.40;;
49223;SDS011;35050;51.316;5.994;2022-08-11T13:27:48;2.35;;;1.63;;
49223;SDS011;35050;51.316;5.994;2022-08-11T13:30:16;1.88;;;1.30;;
49223;SDS011;35050;51.316;5.994;2022-08-11T13:33:01;1.27;;;1.17;;
49223;SDS011;35050;51.316;5.994;2022-08-11T13:35:31;2.92;;;1.35;;
49223;SDS011;35050;51.316;5.994;2022-08-11T13:38:00;1.83;;;1.20;;
49223;SDS011;35050;51.316;5.994;2022-08-11T13:40:26;1.10;;;1.00;;
49223;SDS011;35050;51.316;5.994;2022-08-11T13:42:53;1.45;;;1.08;;
49223;SDS011;35050;51.316;5.994;2022-08-11T13:45:21;1.10;;;1.00;;
49223;SDS011;35050;51.316;5.994;2022-08-11T13:47:48;2.08;;;1.20;;
49223;SDS011;35050;51.316;5.994;2022-08-11T13:50:19;1.10;;;1.07;;
49223;SDS011;35050;51.316;5.994;2022-08-11T13:52:45;1.45;;;1.10;;
49223;SDS011;35050;51.316;5.994;2022-08-11T13:55:13;1.40;;;1.23;;
49223;SDS011;35050;51.316;5.994;2022-08-11T13:57:54;2.70;;;1.30;;
49223;SDS011;35050;51.316;5.994;2022-08-11T14:00:21;1.25;;;1.15;;
49223;SDS011;35050;51.316;5.994;2022-08-11T14:02:47;1.40;;;1.30;;
49223;SDS011;35050;51.316;5.994;2022-08-11T14:05:16;1.65;;;1.40;;
49223;SDS011;35050;51.316;5.994;2022-08-11T14:07:50;2.65;;;1.30;;
49223;SDS011;35050;51.316;5.994;2022-08-11T14:10:19;1.48;;;1.38;;
49223;SDS011;35050;51.316;5.994;2022-08-11T14:13:02;1.70;;;1.60;;
49223;SDS011;35050;51.316;5.994;2022-08-11T14:15:51;1.98;;;1.58;;
49223;SDS011;35050;51.316;5.994;2022-08-11T14:18:21;2.55;;;1.30;;
49223;SDS011;35050;51.316;5.994;2022-08-11T14:20:53;1.98;;;1.63;;
49223;SDS011;35050;51.316;5.994;2022-08-11T14:23:39;2.20;;;1.40;;
49223;SDS011;35050;51.316;5.994;2022-08-11T14:26:10;2.17;;;1.70;;
49223;SDS011;35050;51.316;5.994;2022-08-11T14:28:54;1.67;;;1.50;;
49223;SDS011;35050;51.316;5.994;2022-08-11T14:31:27;1.63;;;1.38;;
49223;SDS011;35050;51.316;5.994;2022-08-11T14:33:56;2.05;;;1.52;;
49223;SDS011;35050;51.316;5.994;2022-08-11T14:36:26;3.22;;;1.45;;
49223;SDS011;35050;51.316;5.994;2022-08-11T14:38:54;1.48;;;1.33;;
49223;SDS011;35050;51.316;5.994;2022-08-11T14:41:21;3.80;;;1.40;;
49223;SDS011;35050;51.316;5.994;2022-08-11T14:44:07;1.80;;;1.27;;
49223;SDS011;35050;51.316;5.994;2022-08-11T14:46:53;1.45;;;1.35;;
49223;SDS011;35050;51.316;5.994;2022-08-11T14:49:30;1.40;;;1.30;;
49223;SDS011;35050;51.316;5.994;2022-08-11T14:52:06;1.40;;;1.30;;
49223;SDS011;35050;51.316;5.994;2022-08-11T14:54:33;3.55;;;1.55;;
49223;SDS011;35050;51.316;5.994;2022-08-11T14:57:19;3.08;;;1.70;;
49223;SDS011;35050;51.316;5.994;2022-08-11T14:59:46;1.70;;;1.60;;
49223;SDS011;35050;51.316;5.994;2022-08-11T15:02:14;1.77;;;1.23;;
49223;SDS011;35050;51.316;5.994;2022-08-11T15:05:00;1.40;;;1.25;;
49223;SDS011;35050;51.316;5.994;2022-08-11T15:07:28;1.42;;;1.33;;
49223;SDS011;35050;51.316;5.994;2022-08-11T15:10:00;1.40;;;1.30;;
49223;SDS011;35050;51.316;5.994;2022-08-11T15:12:28;2.22;;;1.38;;
49223;SDS011;35050;51.316;5.994;2022-08-11T15:14:56;3.63;;;1.80;;
49223;SDS011;35050;51.316;5.994;2022-08-11T15:17:41;2.88;;;1.58;;
49223;SDS011;35050;51.316;5.994;2022-08-11T15:20:12;3.25;;;1.50;;
49223;SDS011;35050;51.316;5.994;2022-08-11T15:22:59;1.50;;;1.40;;
49223;SDS011;35050;51.316;5.994;2022-08-11T15:25:45;1.38;;;1.20;;
49223;SDS011;35050;51.316;5.994;2022-08-11T15:28:28;1.65;;;1.42;;
49223;SDS011;35050;51.316;5.994;2022-08-11T15:31:17;2.45;;;1.50;;
49223;SDS011;35050;51.316;5.994;2022-08-11T15:34:03;2.33;;;1.30;;
49223;SDS011;35050;51.316;5.994;2022-08-11T15:36:50;1.88;;;1.25;;
49223;SDS011;35050;51.316;5.994;2022-08-11T15:42:44;1.40;;;1.30;;
49223;SDS011;35050;51.316;5.994;2022-08-11T15:45:35;3.17;;;1.35;;
49223;SDS011;35050;51.316;5.994;2022-08-11T15:48:13;1.77;;;1.58;;
49223;SDS011;35050;51.316;5.994;2022-08-11T15:51:11;1.30;;;1.20;;
49223;SDS011;35050;51.316;5.994;2022-08-11T15:53:51;1.50;;;1.35;;
49223;SDS011;35050;51.316;5.994;2022-08-11T15:56:19;1.30;;;1.20;;
49223;SDS011;35050;51.316;5.994;2022-08-11T15:58:48;2.05;;;1.48;;
49223;SDS011;35050;51.316;5.994;2022-08-11T16:01:35;1.30;;;1.20;;
49223;SDS011;35050;51.316;5.994;2022-08-11T16:04:23;1.60;;;1.20;;
49223;SDS011;35050;51.316;5.994;2022-08-11T16:06:56;1.60;;;1.30;;
49223;SDS011;35050;51.316;5.994;2022-08-11T16:09:43;1.88;;;1.30;;
49223;SDS011;35050;51.316;5.994;2022-08-11T16:12:15;1.80;;;1.00;;
49223;SDS011;35050;51.316;5.994;2022-08-11T16:14:45;2.10;;;1.20;;
49223;SDS011;35050;51.316;5.994;2022-08-11T16:17:33;2.38;;;1.50;;
49223;SDS011;35050;51.316;5.994;2022-08-11T16:20:04;1.30;;;1.20;;
49223;SDS011;35050;51.316;5.994;2022-08-11T16:22:32;3.30;;;1.70;;
49223;SDS011;35050;51.316;5.994;2022-08-11T16:25:07;2.55;;;1.60;;
49223;SDS011;35050;51.316;5.994;2022-08-11T16:27:39;2.28;;;1.33;;
49223;SDS011;35050;51.316;5.994;2022-08-11T16:30:08;1.17;;;1.10;;
49223;SDS011;35050;51.316;5.994;2022-08-11T16:32:35;1.33;;;1.15;;
49223;SDS011;35050;51.316;5.994;2022-08-11T16:35:08;1.95;;;1.38;;
49223;SDS011;35050;51.316;5.994;2022-08-11T16:37:58;1.83;;;1.40;;
49223;SDS011;35050;51.316;5.994;2022-08-11T16:40:44;2.00;;;1.50;;
49223;SDS011;35050;51.316;5.994;2022-08-11T16:43:13;2.22;;;1.20;;
49223;SDS011;35050;51.316;5.994;2022-08-11T16:45:59;3.83;;;1.52;;
49223;SDS011;35050;51.316;5.994;2022-08-11T16:48:47;1.50;;;1.40;;
49223;SDS011;35050;51.316;5.994;2022-08-11T16:51:14;1.50;;;1.40;;
49223;SDS011;35050;51.316;5.994;2022-08-11T16:53:44;1.58;;;1.48;;
49223;SDS011;35050;51.316;5.994;2022-08-11T16:56:11;1.33;;;1.23;;
49223;SDS011;35050;51.316;5.994;2022-08-11T16:58:41;2.28;;;1.40;;
49223;SDS011;35050;51.316;5.994;2022-08-11T17:01:26;1.83;;;1.30;;
49223;SDS011;35050;51.316;5.994;2022-08-11T17:03:55;3.53;;;1.50;;
49223;SDS011;35050;51.316;5.994;2022-08-11T17:06:45;1.50;;;1.40;;
49223;SDS011;35050;51.316;5.994;2022-08-11T17:09:31;1.73;;;1.23;;
49223;SDS011;35050;51.316;5.994;2022-08-11T17:12:19;2.70;;;1.08;;
49223;SDS011;35050;51.316;5.994;2022-08-11T17:15:08;1.33;;;1.23;;
49223;SDS011;35050;51.316;5.994;2022-08-11T17:17:58;1.45;;;1.25;;
49223;SDS011;35050;51.316;5.994;2022-08-11T17:20:26;1.33;;;1.20;;
49223;SDS011;35050;51.316;5.994;2022-08-11T17:22:54;2.55;;;1.20;;
49223;SDS011;35050;51.316;5.994;2022-08-11T17:25:38;1.13;;;1.08;;
49223;SDS011;35050;51.316;5.994;2022-08-11T17:28:05;1.40;;;1.30;;
49223;SDS011;35050;51.316;5.994;2022-08-11T17:30:32;1.20;;;1.10;;
49223;SDS011;35050;51.316;5.994;2022-08-11T17:33:17;1.98;;;1.50;;
49223;SDS011;35050;51.316;5.994;2022-08-11T17:36:03;1.83;;;1.40;;
49223;SDS011;35050;51.316;5.994;2022-08-11T17:38:30;1.23;;;1.13;;
49223;SDS011;35050;51.316;5.994;2022-08-11T17:40:58;1.50;;;1.30;;
49223;SDS011;35050;51.316;5.994;2022-08-11T17:43:45;1.20;;;1.10;;
49223;SDS011;35050;51.316;5.994;2022-08-11T17:46:31;2.70;;;1.30;;
49223;SDS011;35050;51.316;5.994;2022-08-11T17:49:18;1.20;;;1.10;;
49223;SDS011;35050;51.316;5.994;2022-08-11T17:51:46;1.10;;;0.90;;
49223;SDS011;35050;51.316;5.994;2022-08-11T17:54:32;2.33;;;1.20;;
49223;SDS011;35050;51.316;5.994;2022-08-11T17:57:19;0.80;;;0.80;;
49223;SDS011;35050;51.316;5.994;2022-08-11T18:00:04;1.40;;;1.25;;
49223;SDS011;35050;51.316;5.994;2022-08-11T18:05:17;1.67;;;1.15;;
49223;SDS011;35050;51.316;5.994;2022-08-11T18:07:45;1.13;;;1.02;;
49223;SDS011;35050;51.316;5.994;2022-08-11T18:10:33;2.33;;;1.13;;
49223;SDS011;35050;51.316;5.994;2022-08-11T18:13:19;1.70;;;1.25;;
49223;SDS011;35050;51.316;5.994;2022-08-11T18:16:05;1.10;;;1.00;;
49223;SDS011;35050;51.316;5.994;2022-08-11T18:18:53;1.55;;;1.15;;
49223;SDS011;35050;51.316;5.994;2022-08-11T18:21:40;1.60;;;1.00;;
49223;SDS011;35050;51.316;5.994;2022-08-11T18:24:25;1.13;;;0.98;;
49223;SDS011;35050;51.316;5.994;2022-08-11T18:27:14;1.00;;;0.93;;
49223;SDS011;35050;51.316;5.994;2022-08-11T18:30:01;1.90;;;1.20;;
49223;SDS011;35050;51.316;5.994;2022-08-11T18:32:47;1.17;;;1.08;;
49223;SDS011;35050;51.316;5.994;2022-08-11T18:35:33;1.52;;;0.90;;
49223;SDS011;35050;51.316;5.994;2022-08-11T18:38:18;2.15;;;1.00;;
49223;SDS011;35050;51.316;5.994;2022-08-11T18:41:05;0.90;;;0.90;;
49223;SDS011;35050;51.316;5.994;2022-08-11T18:43:51;1.90;;;0.88;;
49223;SDS011;35050;51.316;5.994;2022-08-11T18:46:38;1.33;;;0.90;;
49223;SDS011;35050;51.316;5.994;2022-08-11T18:49:28;1.52;;;0.70;;
49223;SDS011;35050;51.316;5.994;2022-08-11T18:52:18;2.28;;;1.02;;
49223;SDS011;35050;51.316;5.994;2022-08-11T18:55:05;2.42;;;1.05;;
49223;SDS011;35050;51.316;5.994;2022-08-11T18:57:53;1.77;;;1.20;;
49223;SDS011;35050;51.316;5.994;2022-08-11T19:00:39;1.02;;;0.80;;
49223;SDS011;35050;51.316;5.994;2022-08-11T19:03:25;2.00;;;1.10;;
49223;SDS011;35050;51.316;5.994;2022-08-11T19:06:10;1.20;;;1.10;;
49223;SDS011;35050;51.316;5.994;2022-08-11T19:08:58;1.50;;;0.90;;
49223;SDS011;35050;51.316;5.994;2022-08-11T19:11:44;1.63;;;1.00;;
49223;SDS011;35050;51.316;5.994;2022-08-11T19:14:30;1.65;;;1.23;;
49223;SDS011;35050;51.316;5.994;2022-08-11T19:17:16;1.27;;;1.00;;
49223;SDS011;35050;51.316;5.994;2022-08-11T19:20:18;2.25;;;1.15;;
49223;SDS011;35050;51.316;5.994;2022-08-11T19:23:05;1.13;;;1.00;;
49223;SDS011;35050;51.316;5.994;2022-08-11T19:25:51;1.20;;;1.13;;
49223;SDS011;35050;51.316;5.994;2022-08-11T19:28:35;2.17;;;1.33;;
49223;SDS011;35050;51.316;5.994;2022-08-11T19:31:23;3.10;;;1.67;;
49223;SDS011;35050;51.316;5.994;2022-08-11T19:34:09;3.85;;;1.60;;
49223;SDS011;35050;51.316;5.994;2022-08-11T19:36:56;2.53;;;1.50;;
49223;SDS011;35050;51.316;5.994;2022-08-11T19:39:40;3.08;;;1.70;;
49223;SDS011;35050;51.316;5.994;2022-08-11T19:42:26;2.53;;;1.70;;
49223;SDS011;35050;51.316;5.994;2022-08-11T19:45:12;1.50;;;1.40;;
49223;SDS011;35050;51.316;5.994;2022-08-11T19:47:57;2.35;;;1.30;;
49223;SDS011;35050;51.316;5.994;2022-08-11T19:50:41;1.33;;;1.23;;
49223;SDS011;35050;51.316;5.994;2022-08-11T19:53:26;1.48;;;1.20;;
49223;SDS011;35050;51.316;5.994;2022-08-11T19:56:11;1.50;;;1.00;;
49223;SDS011;35050;51.316;5.994;2022-08-11T19:58:57;1.60;;;1.30;;
49223;SDS011;35050;51.316;5.994;2022-08-11T20:01:42;1.50;;;1.20;;